Rickmers Seoul — V7EI5 — position and weather

sailwx.info

Track history (hours):
 
Tides and Currents Weather Stations Pressure Air Temp Water Temp Dewpoint Dewpoint Depression Visibility Wind Speed Wind Dir Waves Ship Positions

Rickmers Seoul

Last reported at 2014-Aug-25 12:19 UTC. Time now 2014-Sep-03 04:37 UTC.
Position N 01°15' E 104°05'.
Warning: this ship's position is 8 days out of date.

Length 192.9 m; beam 27.8 m; draft 11.2 m.

Type: Ship (hazmat cat A). MMSI: 538001809.

Date/timePositionNaut miles runAvg speedWind from/ knotsBaromVisibWave heightAir tempDewpointWater temp
2014-Aug-25 12:19N 01°15' E 104°05'811.0
2014-Aug-25 11:33N 01°14' E 103°57'9 9.2
2014-Aug-25 10:33N 01°13' E 103°48'7 1.3
2014-Aug-25 05:09N 01°18' E 103°43'0 0.0
2014-Aug-25 04:33N 01°18' E 103°43'0 0.0
2014-Aug-24 16:33N 01°18' E 103°43'0 0.0
2014-Aug-24 14:33N 01°18' E 103°43'0 0.0
2014-Aug-24 13:33N 01°18' E 103°43'0 0.0
2014-Aug-24 12:15N 01°18' E 103°43'0 0.1
2014-Aug-24 11:33N 01°18' E 103°43'0 0.0
2014-Aug-24 10:27N 01°18' E 103°43'0 0.0
2014-Aug-24 09:33N 01°18' E 103°43'0 0.0
2014-Aug-24 04:33N 01°18' E 103°43'0 0.0
2014-Aug-24 03:24N 01°18' E 103°43'0 0.0
2014-Aug-24 02:24N 01°18' E 103°43'0 0.1
2014-Aug-23 21:33N 01°18' E 103°44'8 7.8
2014-Aug-23 20:33N 01°13' E 103°49'7 7.3
2014-Aug-23 19:33N 01°14' E 103°56'  
Track history (hours):
 
Tides and Currents Weather Stations Pressure Air Temp Water Temp Dewpoint Dewpoint Depression Visibility Wind Speed Wind Dir Waves Ship Positions

Rickmers Seoul

Last reported at 2014-Aug-25 12:19 UTC. Time now 2014-Sep-03 04:37 UTC.
Position N 01°15' E 104°05'.
Warning: this ship's position is 8 days out of date.

Length 192.9 m; beam 27.8 m; draft 11.2 m.

Type: Ship (hazmat cat A). MMSI: 538001809.

Date/timePositionNaut miles runAvg speedWind from/ knotsBaromVisibWave heightAir tempDewpointWater temp
2014-Aug-25 12:19N 01°15' E 104°05'811.0
2014-Aug-25 11:33N 01°14' E 103°57'9 9.2
2014-Aug-25 10:33N 01°13' E 103°48'7 1.3
2014-Aug-25 05:09N 01°18' E 103°43'0 0.0
2014-Aug-25 04:33N 01°18' E 103°43'0 0.0
2014-Aug-24 16:33N 01°18' E 103°43'0 0.0
2014-Aug-24 14:33N 01°18' E 103°43'0 0.0
2014-Aug-24 13:33N 01°18' E 103°43'0 0.0
2014-Aug-24 12:15N 01°18' E 103°43'0 0.1
2014-Aug-24 11:33N 01°18' E 103°43'0 0.0
2014-Aug-24 10:27N 01°18' E 103°43'0 0.0
2014-Aug-24 09:33N 01°18' E 103°43'0 0.0
2014-Aug-24 04:33N 01°18' E 103°43'0 0.0
2014-Aug-24 03:24N 01°18' E 103°43'0 0.0
2014-Aug-24 02:24N 01°18' E 103°43'0 0.1
2014-Aug-23 21:33N 01°18' E 103°44'8 7.8
2014-Aug-23 20:33N 01°13' E 103°49'7 7.3
2014-Aug-23 19:33N 01°14' E 103°56'  

Dump ship's entire track history